sensor_id;sensor_type;location;lat;lon;timestamp;P1;durP1;ratioP1;P2;durP2;ratioP2
15408;SDS011;7803;48.130;13.788;2023-04-03T00:02:53;13.00;;;11.70;;
15408;SDS011;7803;48.130;13.788;2023-04-03T00:05:55;13.15;;;11.95;;
15408;SDS011;7803;48.130;13.788;2023-04-03T00:08:57;12.20;;;11.00;;
15408;SDS011;7803;48.130;13.788;2023-04-03T00:11:59;13.60;;;12.20;;
15408;SDS011;7803;48.130;13.788;2023-04-03T00:15:02;11.77;;;10.68;;
15408;SDS011;7803;48.130;13.788;2023-04-03T00:18:05;11.90;;;10.65;;
15408;SDS011;7803;48.130;13.788;2023-04-03T00:21:09;12.18;;;10.98;;
15408;SDS011;7803;48.130;13.788;2023-04-03T00:24:13;11.65;;;10.55;;
15408;SDS011;7803;48.130;13.788;2023-04-03T00:27:15;11.35;;;10.25;;
15408;SDS011;7803;48.130;13.788;2023-04-03T00:30:19;11.68;;;10.57;;
15408;SDS011;7803;48.130;13.788;2023-04-03T00:33:22;11.70;;;10.60;;
15408;SDS011;7803;48.130;13.788;2023-04-03T00:36:24;11.25;;;10.15;;
15408;SDS011;7803;48.130;13.788;2023-04-03T00:39:26;11.85;;;10.65;;
15408;SDS011;7803;48.130;13.788;2023-04-03T00:42:29;11.57;;;10.38;;
15408;SDS011;7803;48.130;13.788;2023-04-03T00:45:34;11.50;;;10.40;;
15408;SDS011;7803;48.130;13.788;2023-04-03T00:48:37;11.95;;;10.85;;
15408;SDS011;7803;48.130;13.788;2023-04-03T00:51:43;10.95;;;9.95;;
15408;SDS011;7803;48.130;13.788;2023-04-03T00:54:45;10.38;;;9.38;;
15408;SDS011;7803;48.130;13.788;2023-04-03T00:57:50;10.73;;;9.68;;
15408;SDS011;7803;48.130;13.788;2023-04-03T01:00:55;10.52;;;9.43;;
15408;SDS011;7803;48.130;13.788;2023-04-03T01:04:00;10.65;;;9.55;;
15408;SDS011;7803;48.130;13.788;2023-04-03T01:07:03;10.50;;;9.50;;
15408;SDS011;7803;48.130;13.788;2023-04-03T01:10:09;10.13;;;9.15;;
15408;SDS011;7803;48.130;13.788;2023-04-03T01:13:17;10.38;;;9.38;;
15408;SDS011;7803;48.130;13.788;2023-04-03T01:16:23;9.90;;;9.00;;
15408;SDS011;7803;48.130;13.788;2023-04-03T01:19:25;9.68;;;8.77;;
15408;SDS011;7803;48.130;13.788;2023-04-03T01:22:27;9.65;;;8.75;;
15408;SDS011;7803;48.130;13.788;2023-04-03T01:25:36;9.73;;;8.82;;
15408;SDS011;7803;48.130;13.788;2023-04-03T01:28:39;10.07;;;9.07;;
15408;SDS011;7803;48.130;13.788;2023-04-03T01:31:45;9.30;;;8.40;;
15408;SDS011;7803;48.130;13.788;2023-04-03T01:34:52;9.75;;;8.75;;
15408;SDS011;7803;48.130;13.788;2023-04-03T01:37:54;9.63;;;8.63;;
15408;SDS011;7803;48.130;13.788;2023-04-03T01:40:56;9.38;;;8.48;;
15408;SDS011;7803;48.130;13.788;2023-04-03T01:43:58;8.90;;;8.10;;
15408;SDS011;7803;48.130;13.788;2023-04-03T01:47:02;9.48;;;8.57;;
15408;SDS011;7803;48.130;13.788;2023-04-03T01:50:07;8.75;;;7.95;;
15408;SDS011;7803;48.130;13.788;2023-04-03T01:53:09;8.82;;;8.00;;
15408;SDS011;7803;48.130;13.788;2023-04-03T01:56:11;8.60;;;7.80;;
15408;SDS011;7803;48.130;13.788;2023-04-03T01:59:13;8.70;;;7.90;;
15408;SDS011;7803;48.130;13.788;2023-04-03T02:02:18;9.05;;;8.15;;
15408;SDS011;7803;48.130;13.788;2023-04-03T02:05:20;8.30;;;7.50;;
15408;SDS011;7803;48.130;13.788;2023-04-03T02:08:22;7.88;;;7.18;;
15408;SDS011;7803;48.130;13.788;2023-04-03T02:11:24;8.20;;;7.45;;
15408;SDS011;7803;48.130;13.788;2023-04-03T02:14:26;8.45;;;7.65;;
15408;SDS011;7803;48.130;13.788;2023-04-03T02:17:30;7.72;;;6.95;;
15408;SDS011;7803;48.130;13.788;2023-04-03T02:20:32;7.88;;;7.13;;
15408;SDS011;7803;48.130;13.788;2023-04-03T02:23:34;7.53;;;6.82;;
15408;SDS011;7803;48.130;13.788;2023-04-03T02:26:37;7.50;;;6.80;;
15408;SDS011;7803;48.130;13.788;2023-04-03T02:29:39;7.55;;;6.85;;
15408;SDS011;7803;48.130;13.788;2023-04-03T02:32:42;7.65;;;6.95;;
15408;SDS011;7803;48.130;13.788;2023-04-03T02:35:44;7.85;;;7.05;;
15408;SDS011;7803;48.130;13.788;2023-04-03T02:38:53;7.68;;;6.97;;
15408;SDS011;7803;48.130;13.788;2023-04-03T02:41:55;7.03;;;6.40;;
15408;SDS011;7803;48.130;13.788;2023-04-03T02:44:57;7.13;;;6.50;;
15408;SDS011;7803;48.130;13.788;2023-04-03T02:48:02;7.43;;;6.45;;
15408;SDS011;7803;48.130;13.788;2023-04-03T02:51:04;6.80;;;6.20;;
15408;SDS011;7803;48.130;13.788;2023-04-03T02:54:07;6.80;;;6.20;;
15408;SDS011;7803;48.130;13.788;2023-04-03T02:57:09;6.65;;;6.05;;
15408;SDS011;7803;48.130;13.788;2023-04-03T03:00:11;6.47;;;5.88;;
15408;SDS011;7803;48.130;13.788;2023-04-03T03:03:15;6.78;;;6.07;;
15408;SDS011;7803;48.130;13.788;2023-04-03T03:06:17;6.35;;;5.75;;
15408;SDS011;7803;48.130;13.788;2023-04-03T03:09:20;6.80;;;6.18;;
15408;SDS011;7803;48.130;13.788;2023-04-03T03:12:22;6.47;;;5.88;;
15408;SDS011;7803;48.130;13.788;2023-04-03T03:15:24;6.57;;;5.97;;
15408;SDS011;7803;48.130;13.788;2023-04-03T03:18:28;6.07;;;5.47;;
15408;SDS011;7803;48.130;13.788;2023-04-03T03:21:30;6.10;;;5.55;;
15408;SDS011;7803;48.130;13.788;2023-04-03T03:24:32;6.22;;;5.63;;
15408;SDS011;7803;48.130;13.788;2023-04-03T03:27:34;5.90;;;5.30;;
15408;SDS011;7803;48.130;13.788;2023-04-03T03:30:36;5.85;;;5.35;;
15408;SDS011;7803;48.130;13.788;2023-04-03T03:33:40;5.75;;;5.25;;
15408;SDS011;7803;48.130;13.788;2023-04-03T03:36:42;6.10;;;5.50;;
15408;SDS011;7803;48.130;13.788;2023-04-03T03:39:44;5.60;;;5.10;;
15408;SDS011;7803;48.130;13.788;2023-04-03T03:42:46;5.80;;;5.20;;
15408;SDS011;7803;48.130;13.788;2023-04-03T03:45:49;5.80;;;5.25;;
15408;SDS011;7803;48.130;13.788;2023-04-03T03:48:54;7.05;;;5.72;;
15408;SDS011;7803;48.130;13.788;2023-04-03T03:51:56;5.05;;;4.63;;
15408;SDS011;7803;48.130;13.788;2023-04-03T03:54:58;5.25;;;4.80;;
15408;SDS011;7803;48.130;13.788;2023-04-03T03:58:00;5.30;;;4.80;;
15408;SDS011;7803;48.130;13.788;2023-04-03T04:01:04;4.85;;;4.45;;
15408;SDS011;7803;48.130;13.788;2023-04-03T04:04:08;5.18;;;4.68;;
15408;SDS011;7803;48.130;13.788;2023-04-03T04:07:10;5.10;;;4.60;;
15408;SDS011;7803;48.130;13.788;2023-04-03T04:10:12;5.07;;;4.68;;
15408;SDS011;7803;48.130;13.788;2023-04-03T04:13:15;5.65;;;4.60;;
15408;SDS011;7803;48.130;13.788;2023-04-03T04:16:17;4.93;;;4.53;;
15408;SDS011;7803;48.130;13.788;2023-04-03T04:19:20;4.80;;;4.40;;
15408;SDS011;7803;48.130;13.788;2023-04-03T04:22:22;4.70;;;4.30;;
15408;SDS011;7803;48.130;13.788;2023-04-03T04:25:24;4.80;;;4.40;;
15408;SDS011;7803;48.130;13.788;2023-04-03T04:28:26;4.65;;;4.25;;
15408;SDS011;7803;48.130;13.788;2023-04-03T04:31:28;5.10;;;4.60;;
15408;SDS011;7803;48.130;13.788;2023-04-03T04:34:32;5.00;;;4.47;;
15408;SDS011;7803;48.130;13.788;2023-04-03T04:37:34;4.47;;;4.07;;
15408;SDS011;7803;48.130;13.788;2023-04-03T04:40:36;4.60;;;4.20;;
15408;SDS011;7803;48.130;13.788;2023-04-03T04:43:38;4.72;;;4.32;;
15408;SDS011;7803;48.130;13.788;2023-04-03T04:46:40;4.85;;;4.35;;
15408;SDS011;7803;48.130;13.788;2023-04-03T04:49:45;4.50;;;4.10;;
15408;SDS011;7803;48.130;13.788;2023-04-03T04:52:48;4.63;;;4.15;;
15408;SDS011;7803;48.130;13.788;2023-04-03T04:55:50;4.38;;;3.97;;
15408;SDS011;7803;48.130;13.788;2023-04-03T04:58:52;4.53;;;4.13;;
15408;SDS011;7803;48.130;13.788;2023-04-03T05:01:55;4.47;;;4.07;;
15408;SDS011;7803;48.130;13.788;2023-04-03T05:04:58;4.57;;;4.18;;
15408;SDS011;7803;48.130;13.788;2023-04-03T05:08:00;4.72;;;4.22;;
15408;SDS011;7803;48.130;13.788;2023-04-03T05:11:02;4.70;;;4.30;;
15408;SDS011;7803;48.130;13.788;2023-04-03T05:14:04;4.35;;;3.95;;
15408;SDS011;7803;48.130;13.788;2023-04-03T05:17:07;4.65;;;4.25;;
15408;SDS011;7803;48.130;13.788;2023-04-03T05:20:11;4.65;;;4.25;;
15408;SDS011;7803;48.130;13.788;2023-04-03T05:23:13;4.35;;;3.95;;
15408;SDS011;7803;48.130;13.788;2023-04-03T05:26:15;4.68;;;4.20;;
15408;SDS011;7803;48.130;13.788;2023-04-03T05:29:17;4.40;;;4.00;;
15408;SDS011;7803;48.130;13.788;2023-04-03T05:32:19;4.78;;;4.28;;
15408;SDS011;7803;48.130;13.788;2023-04-03T05:35:23;4.90;;;4.38;;
15408;SDS011;7803;48.130;13.788;2023-04-03T05:38:25;4.82;;;4.35;;
15408;SDS011;7803;48.130;13.788;2023-04-03T05:41:29;4.32;;;3.92;;
15408;SDS011;7803;48.130;13.788;2023-04-03T05:44:31;4.55;;;4.15;;
15408;SDS011;7803;48.130;13.788;2023-04-03T05:47:33;4.72;;;4.28;;
15408;SDS011;7803;48.130;13.788;2023-04-03T05:50:37;4.60;;;4.20;;
15408;SDS011;7803;48.130;13.788;2023-04-03T05:53:41;4.38;;;3.97;;
15408;SDS011;7803;48.130;13.788;2023-04-03T05:56:44;4.72;;;4.22;;
15408;SDS011;7803;48.130;13.788;2023-04-03T05:59:46;4.90;;;4.30;;
15408;SDS011;7803;48.130;13.788;2023-04-03T06:02:49;4.93;;;4.53;;
15408;SDS011;7803;48.130;13.788;2023-04-03T06:05:52;4.68;;;4.28;;
15408;SDS011;7803;48.130;13.788;2023-04-03T06:08:54;4.82;;;4.32;;
15408;SDS011;7803;48.130;13.788;2023-04-03T06:11:57;4.70;;;4.30;;
15408;SDS011;7803;48.130;13.788;2023-04-03T06:14:59;5.25;;;4.75;;
15408;SDS011;7803;48.130;13.788;2023-04-03T06:18:02;4.80;;;4.32;;
15408;SDS011;7803;48.130;13.788;2023-04-03T06:21:05;4.80;;;4.40;;
15408;SDS011;7803;48.130;13.788;2023-04-03T06:24:08;5.10;;;4.60;;
15408;SDS011;7803;48.130;13.788;2023-04-03T06:27:11;4.90;;;4.38;;
15408;SDS011;7803;48.130;13.788;2023-04-03T06:30:13;4.57;;;4.18;;
15408;SDS011;7803;48.130;13.788;2023-04-03T06:33:15;4.50;;;4.10;;
15408;SDS011;7803;48.130;13.788;2023-04-03T06:36:19;4.90;;;4.18;;
15408;SDS011;7803;48.130;13.788;2023-04-03T06:39:22;4.30;;;3.90;;
15408;SDS011;7803;48.130;13.788;2023-04-03T06:42:24;4.40;;;4.00;;
15408;SDS011;7803;48.130;13.788;2023-04-03T06:45:26;4.90;;;4.40;;
15408;SDS011;7803;48.130;13.788;2023-04-03T06:48:28;4.88;;;4.38;;
15408;SDS011;7803;48.130;13.788;2023-04-03T06:51:32;5.03;;;4.47;;
15408;SDS011;7803;48.130;13.788;2023-04-03T06:54:34;4.57;;;4.18;;
15408;SDS011;7803;48.130;13.788;2023-04-03T06:57:36;4.82;;;4.32;;
15408;SDS011;7803;48.130;13.788;2023-04-03T07:00:39;4.57;;;4.13;;
15408;SDS011;7803;48.130;13.788;2023-04-03T07:03:41;4.78;;;4.28;;
15408;SDS011;7803;48.130;13.788;2023-04-03T07:06:44;4.45;;;4.05;;
15408;SDS011;7803;48.130;13.788;2023-04-03T07:09:47;4.55;;;4.15;;
15408;SDS011;7803;48.130;13.788;2023-04-03T07:12:49;5.05;;;4.55;;
15408;SDS011;7803;48.130;13.788;2023-04-03T07:15:51;4.35;;;3.95;;
15408;SDS011;7803;48.130;13.788;2023-04-03T07:18:54;4.93;;;4.43;;
15408;SDS011;7803;48.130;13.788;2023-04-03T07:21:57;4.65;;;4.25;;
15408;SDS011;7803;48.130;13.788;2023-04-03T07:24:59;4.88;;;4.25;;
15408;SDS011;7803;48.130;13.788;2023-04-03T07:28:02;4.35;;;3.95;;
15408;SDS011;7803;48.130;13.788;2023-04-03T07:31:05;3.97;;;3.67;;
15408;SDS011;7803;48.130;13.788;2023-04-03T07:34:11;4.20;;;3.80;;
15408;SDS011;7803;48.130;13.788;2023-04-03T07:37:14;5.43;;;3.92;;
15408;SDS011;7803;48.130;13.788;2023-04-03T07:40:18;4.20;;;3.80;;
15408;SDS011;7803;48.130;13.788;2023-04-03T07:43:20;4.15;;;3.75;;
15408;SDS011;7803;48.130;13.788;2023-04-03T07:46:24;4.18;;;3.78;;
15408;SDS011;7803;48.130;13.788;2023-04-03T07:49:27;3.97;;;3.67;;
15408;SDS011;7803;48.130;13.788;2023-04-03T07:52:30;4.40;;;4.00;;
15408;SDS011;7803;48.130;13.788;2023-04-03T07:55:32;4.70;;;4.10;;
15408;SDS011;7803;48.130;13.788;2023-04-03T07:58:37;4.32;;;3.92;;
15408;SDS011;7803;48.130;13.788;2023-04-03T08:01:39;3.97;;;3.60;;
15408;SDS011;7803;48.130;13.788;2023-04-03T08:04:41;4.07;;;3.72;;
15408;SDS011;7803;48.130;13.788;2023-04-03T08:07:45;4.25;;;3.85;;
15408;SDS011;7803;48.130;13.788;2023-04-03T08:10:48;3.83;;;3.45;;
15408;SDS011;7803;48.130;13.788;2023-04-03T08:13:51;3.95;;;3.65;;
15408;SDS011;7803;48.130;13.788;2023-04-03T08:16:53;4.15;;;3.75;;
15408;SDS011;7803;48.130;13.788;2023-04-03T08:19:56;4.25;;;3.85;;
15408;SDS011;7803;48.130;13.788;2023-04-03T08:22:59;3.70;;;3.40;;
15408;SDS011;7803;48.130;13.788;2023-04-03T08:26:05;3.90;;;3.47;;
15408;SDS011;7803;48.130;13.788;2023-04-03T08:29:08;4.78;;;3.88;;
15408;SDS011;7803;48.130;13.788;2023-04-03T08:32:10;3.70;;;3.33;;
15408;SDS011;7803;48.130;13.788;2023-04-03T08:35:12;3.97;;;3.58;;
15408;SDS011;7803;48.130;13.788;2023-04-03T08:38:16;3.30;;;3.05;;
15408;SDS011;7803;48.130;13.788;2023-04-03T08:41:20;3.50;;;3.20;;
15408;SDS011;7803;48.130;13.788;2023-04-03T08:44:32;3.50;;;3.20;;
15408;SDS011;7803;48.130;13.788;2023-04-03T08:47:42;3.45;;;3.15;;
15408;SDS011;7803;48.130;13.788;2023-04-03T08:50:49;3.38;;;3.08;;
15408;SDS011;7803;48.130;13.788;2023-04-03T08:53:56;4.38;;;3.50;;
15408;SDS011;7803;48.130;13.788;2023-04-03T08:57:04;4.05;;;3.40;;
15408;SDS011;7803;48.130;13.788;2023-04-03T09:00:13;3.55;;;3.25;;
15408;SDS011;7803;48.130;13.788;2023-04-03T09:03:19;3.70;;;3.40;;
15408;SDS011;7803;48.130;13.788;2023-04-03T09:06:23;3.42;;;3.13;;
15408;SDS011;7803;48.130;13.788;2023-04-03T09:09:32;3.30;;;3.00;;
15408;SDS011;7803;48.130;13.788;2023-04-03T09:12:41;3.50;;;3.20;;
15408;SDS011;7803;48.130;13.788;2023-04-03T09:15:47;3.30;;;3.00;;
15408;SDS011;7803;48.130;13.788;2023-04-03T09:18:51;4.63;;;3.45;;
15408;SDS011;7803;48.130;13.788;2023-04-03T09:21:57;3.38;;;3.08;;
15408;SDS011;7803;48.130;13.788;2023-04-03T09:25:05;3.38;;;3.08;;
15408;SDS011;7803;48.130;13.788;2023-04-03T09:28:13;3.92;;;3.08;;
15408;SDS011;7803;48.130;13.788;2023-04-03T09:31:18;3.30;;;3.00;;
15408;SDS011;7803;48.130;13.788;2023-04-03T09:34:22;3.00;;;2.70;;
15408;SDS011;7803;48.130;13.788;2023-04-03T09:37:34;3.25;;;2.95;;
15408;SDS011;7803;48.130;13.788;2023-04-03T09:40:44;3.10;;;2.80;;
15408;SDS011;7803;48.130;13.788;2023-04-03T09:43:51;3.17;;;2.90;;
15408;SDS011;7803;48.130;13.788;2023-04-03T09:46:56;3.35;;;3.05;;
15408;SDS011;7803;48.130;13.788;2023-04-03T09:50:17;3.03;;;2.75;;
15408;SDS011;7803;48.130;13.788;2023-04-03T09:53:26;3.25;;;2.95;;
15408;SDS011;7803;48.130;13.788;2023-04-03T09:56:31;3.05;;;2.75;;
15408;SDS011;7803;48.130;13.788;2023-04-03T09:59:34;3.20;;;2.90;;
15408;SDS011;7803;48.130;13.788;2023-04-03T10:02:38;2.92;;;2.67;;
15408;SDS011;7803;48.130;13.788;2023-04-03T10:05:41;2.78;;;2.58;;
15408;SDS011;7803;48.130;13.788;2023-04-03T10:08:43;2.90;;;2.70;;
15408;SDS011;7803;48.130;13.788;2023-04-03T10:12:03;3.15;;;2.60;;
15408;SDS011;7803;48.130;13.788;2023-04-03T10:15:10;3.90;;;2.97;;
15408;SDS011;7803;48.130;13.788;2023-04-03T10:18:19;3.05;;;2.67;;
15408;SDS011;7803;48.130;13.788;2023-04-03T10:21:35;2.95;;;2.65;;
15408;SDS011;7803;48.130;13.788;2023-04-03T10:24:47;2.65;;;2.45;;
15408;SDS011;7803;48.130;13.788;2023-04-03T10:27:55;2.83;;;2.53;;
15408;SDS011;7803;48.130;13.788;2023-04-03T10:31:03;3.03;;;2.63;;
15408;SDS011;7803;48.130;13.788;2023-04-03T10:34:13;2.58;;;2.38;;
15408;SDS011;7803;48.130;13.788;2023-04-03T10:37:24;2.80;;;2.60;;
15408;SDS011;7803;48.130;13.788;2023-04-03T10:40:29;3.15;;;2.85;;
15408;SDS011;7803;48.130;13.788;2023-04-03T10:43:39;3.75;;;2.90;;
15408;SDS011;7803;48.130;13.788;2023-04-03T10:46:52;2.60;;;2.40;;
15408;SDS011;7803;48.130;13.788;2023-04-03T10:50:02;2.75;;;2.53;;
15408;SDS011;7803;48.130;13.788;2023-04-03T10:53:17;2.38;;;2.17;;
15408;SDS011;7803;48.130;13.788;2023-04-03T10:56:30;2.90;;;2.60;;
15408;SDS011;7803;48.130;13.788;2023-04-03T10:59:39;2.65;;;2.45;;
15408;SDS011;7803;48.130;13.788;2023-04-03T11:02:45;2.55;;;2.35;;
15408;SDS011;7803;48.130;13.788;2023-04-03T11:05:52;2.50;;;2.30;;
15408;SDS011;7803;48.130;13.788;2023-04-03T11:08:57;2.72;;;2.30;;
15408;SDS011;7803;48.130;13.788;2023-04-03T11:12:04;2.53;;;2.33;;
15408;SDS011;7803;48.130;13.788;2023-04-03T11:15:13;2.40;;;2.20;;
15408;SDS011;7803;48.130;13.788;2023-04-03T11:18:19;3.15;;;2.60;;
15408;SDS011;7803;48.130;13.788;2023-04-03T11:21:25;2.70;;;2.50;;
15408;SDS011;7803;48.130;13.788;2023-04-03T11:24:32;2.50;;;2.30;;
15408;SDS011;7803;48.130;13.788;2023-04-03T11:27:37;2.65;;;2.40;;
15408;SDS011;7803;48.130;13.788;2023-04-03T11:30:48;2.83;;;2.63;;
15408;SDS011;7803;48.130;13.788;2023-04-03T11:33:55;2.75;;;2.30;;
15408;SDS011;7803;48.130;13.788;2023-04-03T11:37:11;2.83;;;2.40;;
15408;SDS011;7803;48.130;13.788;2023-04-03T11:40:20;3.05;;;2.45;;
15408;SDS011;7803;48.130;13.788;2023-04-03T11:43:26;3.17;;;2.58;;
15408;SDS011;7803;48.130;13.788;2023-04-03T11:49:57;2.50;;;2.30;;
15408;SDS011;7803;48.130;13.788;2023-04-03T11:53:02;2.30;;;2.05;;
15408;SDS011;7803;48.130;13.788;2023-04-03T11:56:29;2.28;;;2.08;;
15408;SDS011;7803;48.130;13.788;2023-04-03T11:59:36;2.42;;;2.10;;
15408;SDS011;7803;48.130;13.788;2023-04-03T12:02:40;2.20;;;2.00;;
15408;SDS011;7803;48.130;13.788;2023-04-03T12:05:42;2.30;;;2.10;;
15408;SDS011;7803;48.130;13.788;2023-04-03T12:08:45;2.08;;;1.88;;
15408;SDS011;7803;48.130;13.788;2023-04-03T12:11:47;2.85;;;2.25;;
15408;SDS011;7803;48.130;13.788;2023-04-03T12:14:50;2.22;;;2.03;;
15408;SDS011;7803;48.130;13.788;2023-04-03T12:17:54;2.35;;;2.15;;
15408;SDS011;7803;48.130;13.788;2023-04-03T12:20:57;2.28;;;2.00;;
15408;SDS011;7803;48.130;13.788;2023-04-03T12:24:04;2.03;;;1.85;;
15408;SDS011;7803;48.130;13.788;2023-04-03T12:27:25;2.50;;;2.30;;
15408;SDS011;7803;48.130;13.788;2023-04-03T12:30:34;2.28;;;2.08;;
15408;SDS011;7803;48.130;13.788;2023-04-03T12:33:42;2.38;;;2.15;;
15408;SDS011;7803;48.130;13.788;2023-04-03T12:36:59;2.50;;;2.13;;
15408;SDS011;7803;48.130;13.788;2023-04-03T12:40:09;1.83;;;1.73;;
15408;SDS011;7803;48.130;13.788;2023-04-03T12:43:20;2.30;;;2.10;;
15408;SDS011;7803;48.130;13.788;2023-04-03T12:46:35;2.03;;;1.92;;
15408;SDS011;7803;48.130;13.788;2023-04-03T12:49:42;2.30;;;2.10;;
15408;SDS011;7803;48.130;13.788;2023-04-03T12:52:45;2.00;;;1.80;;
15408;SDS011;7803;48.130;13.788;2023-04-03T12:55:54;2.28;;;2.08;;
15408;SDS011;7803;48.130;13.788;2023-04-03T12:59:12;2.17;;;1.80;;
15408;SDS011;7803;48.130;13.788;2023-04-03T13:02:23;2.00;;;1.88;;
15408;SDS011;7803;48.130;13.788;2023-04-03T13:05:28;1.85;;;1.70;;
15408;SDS011;7803;48.130;13.788;2023-04-03T13:08:32;1.95;;;1.80;;
15408;SDS011;7803;48.130;13.788;2023-04-03T13:11:35;2.53;;;2.03;;
15408;SDS011;7803;48.130;13.788;2023-04-03T13:14:40;2.10;;;1.90;;
15408;SDS011;7803;48.130;13.788;2023-04-03T13:17:52;1.90;;;1.80;;
15408;SDS011;7803;48.130;13.788;2023-04-03T13:20:58;2.20;;;1.77;;
15408;SDS011;7803;48.130;13.788;2023-04-03T13:24:04;2.00;;;1.80;;
15408;SDS011;7803;48.130;13.788;2023-04-03T13:27:06;1.90;;;1.70;;
15408;SDS011;7803;48.130;13.788;2023-04-03T13:30:17;2.13;;;1.90;;
15408;SDS011;7803;48.130;13.788;2023-04-03T13:33:31;2.55;;;1.95;;
15408;SDS011;7803;48.130;13.788;2023-04-03T13:36:39;2.67;;;2.08;;
15408;SDS011;7803;48.130;13.788;2023-04-03T13:39:45;2.15;;;1.90;;
15408;SDS011;7803;48.130;13.788;2023-04-03T13:42:58;2.25;;;1.95;;
15408;SDS011;7803;48.130;13.788;2023-04-03T13:46:03;1.75;;;1.65;;
15408;SDS011;7803;48.130;13.788;2023-04-03T13:49:22;1.90;;;1.70;;
15408;SDS011;7803;48.130;13.788;2023-04-03T13:52:33;1.70;;;1.60;;
15408;SDS011;7803;48.130;13.788;2023-04-03T13:55:51;1.75;;;1.65;;
15408;SDS011;7803;48.130;13.788;2023-04-03T13:59:02;2.13;;;1.77;;
15408;SDS011;7803;48.130;13.788;2023-04-03T14:02:11;1.83;;;1.67;;
15408;SDS011;7803;48.130;13.788;2023-04-03T14:05:17;1.88;;;1.70;;
15408;SDS011;7803;48.130;13.788;2023-04-03T14:08:22;2.00;;;1.80;;
15408;SDS011;7803;48.130;13.788;2023-04-03T14:11:26;2.03;;;1.70;;
15408;SDS011;7803;48.130;13.788;2023-04-03T14:14:31;2.20;;;1.85;;
15408;SDS011;7803;48.130;13.788;2023-04-03T14:17:35;2.10;;;1.90;;
15408;SDS011;7803;48.130;13.788;2023-04-03T14:20:37;1.85;;;1.70;;
15408;SDS011;7803;48.130;13.788;2023-04-03T14:23:41;1.77;;;1.58;;
15408;SDS011;7803;48.130;13.788;2023-04-03T14:26:43;1.77;;;1.67;;
15408;SDS011;7803;48.130;13.788;2023-04-03T14:29:45;1.75;;;1.65;;
15408;SDS011;7803;48.130;13.788;2023-04-03T14:32:48;1.92;;;1.75;;
15408;SDS011;7803;48.130;13.788;2023-04-03T14:35:51;1.85;;;1.70;;
15408;SDS011;7803;48.130;13.788;2023-04-03T14:38:54;2.90;;;1.83;;
15408;SDS011;7803;48.130;13.788;2023-04-03T14:41:57;2.20;;;1.88;;
15408;SDS011;7803;48.130;13.788;2023-04-03T14:44:59;1.60;;;1.50;;
15408;SDS011;7803;48.130;13.788;2023-04-03T14:48:03;1.65;;;1.50;;
15408;SDS011;7803;48.130;13.788;2023-04-03T14:51:05;1.90;;;1.70;;
15408;SDS011;7803;48.130;13.788;2023-04-03T14:54:11;2.10;;;1.60;;
15408;SDS011;7803;48.130;13.788;2023-04-03T14:57:15;1.65;;;1.55;;
15408;SDS011;7803;48.130;13.788;2023-04-03T15:00:19;1.52;;;1.42;;
15408;SDS011;7803;48.130;13.788;2023-04-03T15:03:22;1.60;;;1.50;;
15408;SDS011;7803;48.130;13.788;2023-04-03T15:06:25;2.28;;;1.70;;
15408;SDS011;7803;48.130;13.788;2023-04-03T15:09:28;1.70;;;1.60;;
15408;SDS011;7803;48.130;13.788;2023-04-03T15:12:30;1.60;;;1.50;;
15408;SDS011;7803;48.130;13.788;2023-04-03T15:15:32;1.52;;;1.42;;
15408;SDS011;7803;48.130;13.788;2023-04-03T15:18:37;1.60;;;1.50;;
15408;SDS011;7803;48.130;13.788;2023-04-03T15:21:39;1.90;;;1.70;;
15408;SDS011;7803;48.130;13.788;2023-04-03T15:24:43;1.70;;;1.60;;
15408;SDS011;7803;48.130;13.788;2023-04-03T15:27:45;1.75;;;1.63;;
15408;SDS011;7803;48.130;13.788;2023-04-03T15:30:48;2.75;;;1.90;;
15408;SDS011;7803;48.130;13.788;2023-04-03T15:33:50;2.25;;;1.90;;
15408;SDS011;7803;48.130;13.788;2023-04-03T15:36:52;1.77;;;1.60;;
15408;SDS011;7803;48.130;13.788;2023-04-03T15:39:55;1.80;;;1.70;;
15408;SDS011;7803;48.130;13.788;2023-04-03T15:42:58;1.75;;;1.65;;
15408;SDS011;7803;48.130;13.788;2023-04-03T15:46:00;1.80;;;1.60;;
15408;SDS011;7803;48.130;13.788;2023-04-03T15:49:02;1.80;;;1.60;;
15408;SDS011;7803;48.130;13.788;2023-04-03T15:52:04;2.83;;;2.28;;
15408;SDS011;7803;48.130;13.788;2023-04-03T15:55:08;2.22;;;1.75;;
15408;SDS011;7803;48.130;13.788;2023-04-03T15:58:10;1.73;;;1.63;;
15408;SDS011;7803;48.130;13.788;2023-04-03T16:01:12;1.75;;;1.65;;
15408;SDS011;7803;48.130;13.788;2023-04-03T16:04:15;1.70;;;1.60;;
15408;SDS011;7803;48.130;13.788;2023-04-03T16:07:17;1.95;;;1.67;;
15408;SDS011;7803;48.130;13.788;2023-04-03T16:10:21;1.52;;;1.42;;
15408;SDS011;7803;48.130;13.788;2023-04-03T16:13:23;2.75;;;1.98;;
15408;SDS011;7803;48.130;13.788;2023-04-03T16:16:27;2.20;;;2.00;;
15408;SDS011;7803;48.130;13.788;2023-04-03T16:19:29;2.13;;;1.90;;
15408;SDS011;7803;48.130;13.788;2023-04-03T16:22:31;4.07;;;2.55;;
15408;SDS011;7803;48.130;13.788;2023-04-03T16:25:36;1.90;;;1.80;;
15408;SDS011;7803;48.130;13.788;2023-04-03T16:28:38;1.80;;;1.70;;
15408;SDS011;7803;48.130;13.788;2023-04-03T16:31:40;1.92;;;1.70;;
15408;SDS011;7803;48.130;13.788;2023-04-03T16:34:42;1.65;;;1.55;;
15408;SDS011;7803;48.130;13.788;2023-04-03T16:37:44;2.10;;;1.90;;
15408;SDS011;7803;48.130;13.788;2023-04-03T16:40:48;2.42;;;1.92;;
15408;SDS011;7803;48.130;13.788;2023-04-03T16:43:52;2.10;;;1.90;;
15408;SDS011;7803;48.130;13.788;2023-04-03T16:46:54;2.53;;;2.20;;
15408;SDS011;7803;48.130;13.788;2023-04-03T16:49:57;2.70;;;2.33;;
15408;SDS011;7803;48.130;13.788;2023-04-03T16:52:59;2.15;;;1.83;;
15408;SDS011;7803;48.130;13.788;2023-04-03T16:56:04;2.00;;;1.83;;
15408;SDS011;7803;48.130;13.788;2023-04-03T16:59:06;1.70;;;1.60;;
15408;SDS011;7803;48.130;13.788;2023-04-03T17:02:08;1.63;;;1.52;;
15408;SDS011;7803;48.130;13.788;2023-04-03T17:05:11;1.70;;;1.60;;
15408;SDS011;7803;48.130;13.788;2023-04-03T17:08:13;2.17;;;1.98;;
15408;SDS011;7803;48.130;13.788;2023-04-03T17:11:17;1.95;;;1.80;;
15408;SDS011;7803;48.130;13.788;2023-04-03T17:14:20;2.25;;;1.73;;
15408;SDS011;7803;48.130;13.788;2023-04-03T17:17:23;3.08;;;2.20;;
15408;SDS011;7803;48.130;13.788;2023-04-03T17:20:26;2.33;;;2.10;;
15408;SDS011;7803;48.130;13.788;2023-04-03T17:23:28;2.22;;;2.03;;
15408;SDS011;7803;48.130;13.788;2023-04-03T17:26:33;2.17;;;1.98;;
15408;SDS011;7803;48.130;13.788;2023-04-03T17:29:36;1.98;;;1.77;;
15408;SDS011;7803;48.130;13.788;2023-04-03T17:32:38;1.95;;;1.80;;
15408;SDS011;7803;48.130;13.788;2023-04-03T17:35:40;2.13;;;1.80;;
15408;SDS011;7803;48.130;13.788;2023-04-03T17:38:43;3.33;;;2.25;;
15408;SDS011;7803;48.130;13.788;2023-04-03T17:41:48;2.97;;;2.00;;
15408;SDS011;7803;48.130;13.788;2023-04-03T17:44:51;1.80;;;1.70;;
15408;SDS011;7803;48.130;13.788;2023-04-03T17:47:53;2.20;;;1.88;;
15408;SDS011;7803;48.130;13.788;2023-04-03T17:50:56;2.00;;;1.73;;
15408;SDS011;7803;48.130;13.788;2023-04-03T17:53:59;2.10;;;1.90;;
15408;SDS011;7803;48.130;13.788;2023-04-03T17:57:03;2.08;;;1.88;;
15408;SDS011;7803;48.130;13.788;2023-04-03T18:00:08;2.08;;;1.88;;
15408;SDS011;7803;48.130;13.788;2023-04-03T18:03:14;1.85;;;1.75;;
15408;SDS011;7803;48.130;13.788;2023-04-03T18:06:18;2.08;;;1.67;;
15408;SDS011;7803;48.130;13.788;2023-04-03T18:09:24;2.30;;;1.98;;
15408;SDS011;7803;48.130;13.788;2023-04-03T18:12:31;2.65;;;1.98;;
15408;SDS011;7803;48.130;13.788;2023-04-03T18:15:34;1.85;;;1.63;;
15408;SDS011;7803;48.130;13.788;2023-04-03T18:18:42;1.98;;;1.70;;
15408;SDS011;7803;48.130;13.788;2023-04-03T18:21:46;2.22;;;1.80;;
15408;SDS011;7803;48.130;13.788;2023-04-03T18:24:48;2.05;;;1.85;;
15408;SDS011;7803;48.130;13.788;2023-04-03T18:27:54;1.98;;;1.80;;
15408;SDS011;7803;48.130;13.788;2023-04-03T18:30:59;2.15;;;1.70;;
15408;SDS011;7803;48.130;13.788;2023-04-03T18:34:02;2.55;;;2.00;;